sensor_id;sensor_type;location;lat;lon;timestamp;temperature;humidity
10443;DHT22;5269;51.146;16.986;2023-12-04T00:02:24;-5.50;99.90
10443;DHT22;5269;51.146;16.986;2023-12-04T00:04:57;-5.40;99.90
10443;DHT22;5269;51.146;16.986;2023-12-04T00:07:26;-5.50;99.90
10443;DHT22;5269;51.146;16.986;2023-12-04T00:09:53;-5.60;99.90
10443;DHT22;5269;51.146;16.986;2023-12-04T00:12:20;-5.50;99.90
10443;DHT22;5269;51.146;16.986;2023-12-04T00:14:56;-5.30;99.90
10443;DHT22;5269;51.146;16.986;2023-12-04T00:17:22;-5.40;99.90
10443;DHT22;5269;51.146;16.986;2023-12-04T00:19:51;-5.50;99.90
10443;DHT22;5269;51.146;16.986;2023-12-04T00:22:18;-5.70;99.90
10443;DHT22;5269;51.146;16.986;2023-12-04T00:24:53;-5.60;99.90
10443;DHT22;5269;51.146;16.986;2023-12-04T00:27:20;-5.70;99.90
10443;DHT22;5269;51.146;16.986;2023-12-04T00:29:52;-5.80;99.90
10443;DHT22;5269;51.146;16.986;2023-12-04T00:32:24;-5.90;99.90
10443;DHT22;5269;51.146;16.986;2023-12-04T00:34:54;-5.80;99.90
10443;DHT22;5269;51.146;16.986;2023-12-04T00:37:25;-5.70;99.90
10443;DHT22;5269;51.146;16.986;2023-12-04T00:39:54;-5.70;99.90
10443;DHT22;5269;51.146;16.986;2023-12-04T00:42:23;-5.70;99.90
10443;DHT22;5269;51.146;16.986;2023-12-04T00:44:50;-5.70;99.90
10443;DHT22;5269;51.146;16.986;2023-12-04T00:47:17;-5.80;99.90
10443;DHT22;5269;51.146;16.986;2023-12-04T00:49:46;-5.70;99.90
10443;DHT22;5269;51.146;16.986;2023-12-04T00:52:13;-5.80;99.90
10443;DHT22;5269;51.146;16.986;2023-12-04T00:54:40;-6.00;99.90
10443;DHT22;5269;51.146;16.986;2023-12-04T00:57:07;-6.10;99.90
10443;DHT22;5269;51.146;16.986;2023-12-04T00:59:35;-6.20;99.90
10443;DHT22;5269;51.146;16.986;2023-12-04T01:02:07;-6.10;99.90
10443;DHT22;5269;51.146;16.986;2023-12-04T01:04:34;-6.30;99.90
10443;DHT22;5269;51.146;16.986;2023-12-04T01:07:05;-6.40;99.90
10443;DHT22;5269;51.146;16.986;2023-12-04T01:09:36;-6.40;99.90
10443;DHT22;5269;51.146;16.986;2023-12-04T01:12:04;-6.40;99.90
10443;DHT22;5269;51.146;16.986;2023-12-04T01:14:31;-6.40;99.90
10443;DHT22;5269;51.146;16.986;2023-12-04T01:16:58;-6.50;99.90
10443;DHT22;5269;51.146;16.986;2023-12-04T01:19:25;-6.70;99.90
10443;DHT22;5269;51.146;16.986;2023-12-04T01:21:52;-6.90;99.90
10443;DHT22;5269;51.146;16.986;2023-12-04T01:24:22;-6.90;99.90
10443;DHT22;5269;51.146;16.986;2023-12-04T01:26:49;-7.00;99.90
10443;DHT22;5269;51.146;16.986;2023-12-04T01:29:16;-7.20;99.90
10443;DHT22;5269;51.146;16.986;2023-12-04T01:31:43;-7.20;99.90
10443;DHT22;5269;51.146;16.986;2023-12-04T01:34:10;-7.40;99.90
10443;DHT22;5269;51.146;16.986;2023-12-04T01:36:40;-7.50;99.90
10443;DHT22;5269;51.146;16.986;2023-12-04T01:39:07;-7.30;99.90
10443;DHT22;5269;51.146;16.986;2023-12-04T01:41:35;-7.20;99.90
10443;DHT22;5269;51.146;16.986;2023-12-04T01:44:04;-7.10;99.90
10443;DHT22;5269;51.146;16.986;2023-12-04T01:46:30;-7.20;99.90
10443;DHT22;5269;51.146;16.986;2023-12-04T01:48:58;-7.30;99.90
10443;DHT22;5269;51.146;16.986;2023-12-04T01:51:26;-7.40;99.90
10443;DHT22;5269;51.146;16.986;2023-12-04T01:53:55;-7.30;99.90
10443;DHT22;5269;51.146;16.986;2023-12-04T01:56:23;-7.30;99.90
10443;DHT22;5269;51.146;16.986;2023-12-04T01:58:56;-7.40;99.90
10443;DHT22;5269;51.146;16.986;2023-12-04T02:01:25;-7.30;99.90
10443;DHT22;5269;51.146;16.986;2023-12-04T02:03:54;-7.40;99.90
10443;DHT22;5269;51.146;16.986;2023-12-04T02:06:21;-7.50;99.90
10443;DHT22;5269;51.146;16.986;2023-12-04T02:08:56;-7.60;99.90
10443;DHT22;5269;51.146;16.986;2023-12-04T02:11:23;-7.80;99.90
10443;DHT22;5269;51.146;16.986;2023-12-04T02:13:52;-7.80;99.90
10443;DHT22;5269;51.146;16.986;2023-12-04T02:16:21;-7.90;99.90
10443;DHT22;5269;51.146;16.986;2023-12-04T02:18:53;-8.00;99.90
10443;DHT22;5269;51.146;16.986;2023-12-04T02:21:26;-7.90;99.90
10443;DHT22;5269;51.146;16.986;2023-12-04T02:23:55;-7.80;99.90
10443;DHT22;5269;51.146;16.986;2023-12-04T02:26:26;-7.80;99.90
10443;DHT22;5269;51.146;16.986;2023-12-04T02:29:00;-7.80;99.90
10443;DHT22;5269;51.146;16.986;2023-12-04T02:31:31;-7.70;99.90
10443;DHT22;5269;51.146;16.986;2023-12-04T02:34:01;-7.60;99.90
10443;DHT22;5269;51.146;16.986;2023-12-04T02:36:31;-7.70;99.90
10443;DHT22;5269;51.146;16.986;2023-12-04T02:39:01;-7.80;99.90
10443;DHT22;5269;51.146;16.986;2023-12-04T02:41:30;-7.90;99.90
10443;DHT22;5269;51.146;16.986;2023-12-04T02:44:05;-7.90;99.90
10443;DHT22;5269;51.146;16.986;2023-12-04T02:46:36;-7.80;99.90
10443;DHT22;5269;51.146;16.986;2023-12-04T02:49:05;-7.80;99.90
10443;DHT22;5269;51.146;16.986;2023-12-04T02:51:32;-8.00;99.90
10443;DHT22;5269;51.146;16.986;2023-12-04T02:54:05;-8.10;99.90
10443;DHT22;5269;51.146;16.986;2023-12-04T02:56:38;-8.20;99.90
10443;DHT22;5269;51.146;16.986;2023-12-04T02:59:05;-8.30;99.90
10443;DHT22;5269;51.146;16.986;2023-12-04T03:01:34;-8.40;99.90
10443;DHT22;5269;51.146;16.986;2023-12-04T03:04:03;-8.30;99.90
10443;DHT22;5269;51.146;16.986;2023-12-04T03:06:30;-8.30;99.90
10443;DHT22;5269;51.146;16.986;2023-12-04T03:09:00;-8.20;99.90
10443;DHT22;5269;51.146;16.986;2023-12-04T03:11:28;-8.30;99.90
10443;DHT22;5269;51.146;16.986;2023-12-04T03:13:59;-8.30;99.90
10443;DHT22;5269;51.146;16.986;2023-12-04T03:16:34;-8.40;99.90
10443;DHT22;5269;51.146;16.986;2023-12-04T03:19:05;-8.40;99.90
10443;DHT22;5269;51.146;16.986;2023-12-04T03:21:32;-8.50;99.90
10443;DHT22;5269;51.146;16.986;2023-12-04T03:24:00;-8.60;99.90
10443;DHT22;5269;51.146;16.986;2023-12-04T03:26:28;-8.60;99.90
10443;DHT22;5269;51.146;16.986;2023-12-04T03:28:56;-8.70;99.90
10443;DHT22;5269;51.146;16.986;2023-12-04T03:31:24;-8.80;99.90
10443;DHT22;5269;51.146;16.986;2023-12-04T03:33:53;-8.80;99.90
10443;DHT22;5269;51.146;16.986;2023-12-04T03:36:21;-8.80;99.90
10443;DHT22;5269;51.146;16.986;2023-12-04T03:38:58;-8.90;99.90
10443;DHT22;5269;51.146;16.986;2023-12-04T03:41:25;-9.00;99.90
10443;DHT22;5269;51.146;16.986;2023-12-04T03:43:55;-9.00;99.90
10443;DHT22;5269;51.146;16.986;2023-12-04T03:46:28;-9.00;99.90
10443;DHT22;5269;51.146;16.986;2023-12-04T03:48:55;-9.00;99.90
10443;DHT22;5269;51.146;16.986;2023-12-04T03:51:22;-9.00;99.90
10443;DHT22;5269;51.146;16.986;2023-12-04T03:53:52;-9.10;99.90
10443;DHT22;5269;51.146;16.986;2023-12-04T03:56:22;-9.10;99.90
10443;DHT22;5269;51.146;16.986;2023-12-04T03:58:49;-9.10;99.90
10443;DHT22;5269;51.146;16.986;2023-12-04T04:01:18;-9.20;99.90
10443;DHT22;5269;51.146;16.986;2023-12-04T04:03:45;-9.20;99.90
10443;DHT22;5269;51.146;16.986;2023-12-04T04:06:12;-9.20;99.90
10443;DHT22;5269;51.146;16.986;2023-12-04T04:08:39;-9.30;99.90
10443;DHT22;5269;51.146;16.986;2023-12-04T04:11:06;-9.30;99.90
10443;DHT22;5269;51.146;16.986;2023-12-04T04:13:34;-9.30;99.90
10443;DHT22;5269;51.146;16.986;2023-12-04T04:16:01;-9.40;99.90
10443;DHT22;5269;51.146;16.986;2023-12-04T04:18:29;-9.50;99.90
10443;DHT22;5269;51.146;16.986;2023-12-04T04:20:58;-9.50;99.90
10443;DHT22;5269;51.146;16.986;2023-12-04T04:23:27;-9.60;99.90
10443;DHT22;5269;51.146;16.986;2023-12-04T04:25:54;-9.60;99.90
10443;DHT22;5269;51.146;16.986;2023-12-04T04:28:21;-9.70;98.10
10443;DHT22;5269;51.146;16.986;2023-12-04T04:30:49;-9.70;99.30
10443;DHT22;5269;51.146;16.986;2023-12-04T04:33:16;-9.70;99.90
10443;DHT22;5269;51.146;16.986;2023-12-04T04:35:47;-9.70;99.90
10443;DHT22;5269;51.146;16.986;2023-12-04T04:38:13;-9.60;99.90
10443;DHT22;5269;51.146;16.986;2023-12-04T04:40:40;-9.60;99.90
10443;DHT22;5269;51.146;16.986;2023-12-04T04:43:10;-9.60;99.90
10443;DHT22;5269;51.146;16.986;2023-12-04T04:45:37;-9.70;99.90
10443;DHT22;5269;51.146;16.986;2023-12-04T04:48:07;-9.60;99.90
10443;DHT22;5269;51.146;16.986;2023-12-04T04:50:34;-9.60;99.90
10443;DHT22;5269;51.146;16.986;2023-12-04T04:53:10;-9.60;99.90
10443;DHT22;5269;51.146;16.986;2023-12-04T04:55:39;-9.60;99.90
10443;DHT22;5269;51.146;16.986;2023-12-04T04:58:08;-9.60;99.90
10443;DHT22;5269;51.146;16.986;2023-12-04T05:00:46;-9.60;99.90
10443;DHT22;5269;51.146;16.986;2023-12-04T05:03:15;-9.70;99.90
10443;DHT22;5269;51.146;16.986;2023-12-04T05:05:42;-9.70;99.90
10443;DHT22;5269;51.146;16.986;2023-12-04T05:08:17;-9.70;99.90
10443;DHT22;5269;51.146;16.986;2023-12-04T05:10:46;-9.70;99.90
10443;DHT22;5269;51.146;16.986;2023-12-04T05:13:21;-9.70;99.90
10443;DHT22;5269;51.146;16.986;2023-12-04T05:15:53;-9.90;99.90
10443;DHT22;5269;51.146;16.986;2023-12-04T05:18:28;-9.90;36.50
10443;DHT22;5269;51.146;16.986;2023-12-04T05:20:55;-10.00;1.00
10443;DHT22;5269;51.146;16.986;2023-12-04T05:23:28;-10.10;1.00
10443;DHT22;5269;51.146;16.986;2023-12-04T05:25:57;-10.10;1.00
10443;DHT22;5269;51.146;16.986;2023-12-04T05:28:26;-10.20;1.00
10443;DHT22;5269;51.146;16.986;2023-12-04T05:30:57;-10.20;1.00
10443;DHT22;5269;51.146;16.986;2023-12-04T05:42:08;-10.40;1.00
10443;DHT22;5269;51.146;16.986;2023-12-04T05:49:55;-10.40;1.00
10443;DHT22;5269;51.146;16.986;2023-12-04T05:52:25;-10.20;1.00
10443;DHT22;5269;51.146;16.986;2023-12-04T05:54:58;-10.20;5.50
10443;DHT22;5269;51.146;16.986;2023-12-04T06:00:17;-10.20;99.90
10443;DHT22;5269;51.146;16.986;2023-12-04T06:03:10;-10.20;99.90
10443;DHT22;5269;51.146;16.986;2023-12-04T06:05:46;-10.20;99.90
10443;DHT22;5269;51.146;16.986;2023-12-04T06:08:16;-10.20;99.90
10443;DHT22;5269;51.146;16.986;2023-12-04T07:36:37;-9.00;99.90
10443;DHT22;5269;51.146;16.986;2023-12-04T07:46:45;-8.60;99.90
10443;DHT22;5269;51.146;16.986;2023-12-04T07:49:17;-8.60;99.90
10443;DHT22;5269;51.146;16.986;2023-12-04T08:49:29;-5.40;99.90
10443;DHT22;5269;51.146;16.986;2023-12-04T08:52:07;-5.30;99.90
10443;DHT22;5269;51.146;16.986;2023-12-04T08:54:39;-5.10;99.90
10443;DHT22;5269;51.146;16.986;2023-12-04T08:57:17;-4.90;99.90
10443;DHT22;5269;51.146;16.986;2023-12-04T08:59:46;-4.80;99.90
10443;DHT22;5269;51.146;16.986;2023-12-04T09:02:15;-4.70;99.90
10443;DHT22;5269;51.146;16.986;2023-12-04T09:04:47;-4.40;99.90
10443;DHT22;5269;51.146;16.986;2023-12-04T09:07:20;-4.30;99.90
10443;DHT22;5269;51.146;16.986;2023-12-04T09:10:00;-4.10;99.90
10443;DHT22;5269;51.146;16.986;2023-12-04T09:12:27;-3.90;99.90
10443;DHT22;5269;51.146;16.986;2023-12-04T09:14:56;-3.80;99.90
10443;DHT22;5269;51.146;16.986;2023-12-04T09:17:28;-3.60;99.90
10443;DHT22;5269;51.146;16.986;2023-12-04T09:19:57;-3.50;99.90
10443;DHT22;5269;51.146;16.986;2023-12-04T09:22:47;-3.40;99.90
10443;DHT22;5269;51.146;16.986;2023-12-04T09:25:20;-3.40;99.90
10443;DHT22;5269;51.146;16.986;2023-12-04T09:27:56;-3.10;99.90
10443;DHT22;5269;51.146;16.986;2023-12-04T09:30:29;-3.00;1.00
10443;DHT22;5269;51.146;16.986;2023-12-04T09:32:57;-3.00;1.00
10443;DHT22;5269;51.146;16.986;2023-12-04T09:35:38;-3.00;99.90
10443;DHT22;5269;51.146;16.986;2023-12-04T09:38:06;-2.90;1.00
10443;DHT22;5269;51.146;16.986;2023-12-04T09:40:34;-2.80;1.00
10443;DHT22;5269;51.146;16.986;2023-12-04T09:43:08;-2.80;99.90
10443;DHT22;5269;51.146;16.986;2023-12-04T11:38:27;-0.80;1.00
10443;DHT22;5269;51.146;16.986;2023-12-04T11:48:10;-0.90;1.00
10443;DHT22;5269;51.146;16.986;2023-12-04T11:50:47;-0.70;1.00
10443;DHT22;5269;51.146;16.986;2023-12-04T11:53:48;-0.70;1.00
10443;DHT22;5269;51.146;16.986;2023-12-04T11:56:18;-0.70;1.00
10443;DHT22;5269;51.146;16.986;2023-12-04T11:59:08;-0.70;1.00
10443;DHT22;5269;51.146;16.986;2023-12-04T12:01:50;-0.80;1.00
10443;DHT22;5269;51.146;16.986;2023-12-04T12:04:58;-0.60;1.00
10443;DHT22;5269;51.146;16.986;2023-12-04T12:28:17;-0.80;1.00
10443;DHT22;5269;51.146;16.986;2023-12-04T12:30:46;-0.90;99.90
10443;DHT22;5269;51.146;16.986;2023-12-04T12:37:32;-1.20;1.00
10443;DHT22;5269;51.146;16.986;2023-12-04T12:44:00;-1.40;1.00
10443;DHT22;5269;51.146;16.986;2023-12-04T13:03:19;-1.70;11.60
10443;DHT22;5269;51.146;16.986;2023-12-04T13:06:05;-1.70;99.90
10443;DHT22;5269;51.146;16.986;2023-12-04T13:08:37;-1.90;1.00
10443;DHT22;5269;51.146;16.986;2023-12-04T13:11:12;-1.80;99.90
10443;DHT22;5269;51.146;16.986;2023-12-04T13:13:48;-1.90;99.90
10443;DHT22;5269;51.146;16.986;2023-12-04T13:33:50;-2.20;1.00
10443;DHT22;5269;51.146;16.986;2023-12-04T13:36:20;-2.30;1.00
10443;DHT22;5269;51.146;16.986;2023-12-04T13:38:56;-2.20;99.90
10443;DHT22;5269;51.146;16.986;2023-12-04T13:41:26;-2.30;1.00
10443;DHT22;5269;51.146;16.986;2023-12-04T13:55:08;-2.60;99.90
10443;DHT22;5269;51.146;16.986;2023-12-04T14:07:28;-2.80;99.90
10443;DHT22;5269;51.146;16.986;2023-12-04T14:15:11;-3.00;1.00
10443;DHT22;5269;51.146;16.986;2023-12-04T14:17:48;-2.90;1.00
10443;DHT22;5269;51.146;16.986;2023-12-04T14:20:48;-3.00;1.00
10443;DHT22;5269;51.146;16.986;2023-12-04T14:23:39;-3.00;99.90
10443;DHT22;5269;51.146;16.986;2023-12-04T14:26:17;-3.00;99.90
10443;DHT22;5269;51.146;16.986;2023-12-04T14:28:47;-2.90;99.90
10443;DHT22;5269;51.146;16.986;2023-12-04T14:31:27;-2.70;1.00
10443;DHT22;5269;51.146;16.986;2023-12-04T14:37:39;-3.00;4.00
10443;DHT22;5269;51.146;16.986;2023-12-04T14:40:17;-3.10;99.90
10443;DHT22;5269;51.146;16.986;2023-12-04T14:42:50;-3.10;99.90
10443;DHT22;5269;51.146;16.986;2023-12-04T14:49:01;-3.10;1.00
10443;DHT22;5269;51.146;16.986;2023-12-04T15:01:39;-3.10;99.90
10443;DHT22;5269;51.146;16.986;2023-12-04T15:04:27;-3.10;1.00
10443;DHT22;5269;51.146;16.986;2023-12-04T15:07:20;-3.10;1.00
10443;DHT22;5269;51.146;16.986;2023-12-04T15:10:01;-3.10;1.00
10443;DHT22;5269;51.146;16.986;2023-12-04T15:13:00;-3.10;1.00
10443;DHT22;5269;51.146;16.986;2023-12-04T15:18:47;-3.10;1.00
10443;DHT22;5269;51.146;16.986;2023-12-04T15:24:18;-3.10;1.00
10443;DHT22;5269;51.146;16.986;2023-12-04T15:26:50;-3.20;1.00
10443;DHT22;5269;51.146;16.986;2023-12-04T15:29:30;-3.10;1.00
10443;DHT22;5269;51.146;16.986;2023-12-04T15:32:07;-3.10;54.10
10443;DHT22;5269;51.146;16.986;2023-12-04T15:34:48;-3.10;32.20
10443;DHT22;5269;51.146;16.986;2023-12-04T15:37:20;-3.20;90.20
10443;DHT22;5269;51.146;16.986;2023-12-04T15:39:49;-3.00;99.90
10443;DHT22;5269;51.146;16.986;2023-12-04T15:42:20;-3.20;99.90
10443;DHT22;5269;51.146;16.986;2023-12-04T15:44:56;-3.10;99.90
10443;DHT22;5269;51.146;16.986;2023-12-04T15:47:29;-3.10;99.90
10443;DHT22;5269;51.146;16.986;2023-12-04T15:50:01;-3.10;99.90
10443;DHT22;5269;51.146;16.986;2023-12-04T15:52:39;-3.10;99.90
10443;DHT22;5269;51.146;16.986;2023-12-04T15:55:09;-3.10;99.90
10443;DHT22;5269;51.146;16.986;2023-12-04T15:57:38;-3.10;99.90
10443;DHT22;5269;51.146;16.986;2023-12-04T16:00:09;-3.10;99.90
10443;DHT22;5269;51.146;16.986;2023-12-04T16:02:41;-3.10;99.90
10443;DHT22;5269;51.146;16.986;2023-12-04T16:15:51;-3.00;99.90
10443;DHT22;5269;51.146;16.986;2023-12-04T16:18:31;-3.00;99.90
10443;DHT22;5269;51.146;16.986;2023-12-04T16:21:08;-3.00;99.90
10443;DHT22;5269;51.146;16.986;2023-12-04T16:23:38;-3.00;99.90
10443;DHT22;5269;51.146;16.986;2023-12-04T16:31:40;-3.10;99.90
10443;DHT22;5269;51.146;16.986;2023-12-04T16:37:47;-3.20;99.90
10443;DHT22;5269;51.146;16.986;2023-12-04T16:40:20;-3.20;99.90
10443;DHT22;5269;51.146;16.986;2023-12-04T16:42:49;-3.20;99.90
10443;DHT22;5269;51.146;16.986;2023-12-04T17:05:38;-3.40;99.90
10443;DHT22;5269;51.146;16.986;2023-12-04T17:34:09;-3.40;99.90
10443;DHT22;5269;51.146;16.986;2023-12-04T17:36:38;-3.40;99.90
10443;DHT22;5269;51.146;16.986;2023-12-04T17:42:42;-3.30;99.90
10443;DHT22;5269;51.146;16.986;2023-12-04T17:45:11;-3.40;99.90
10443;DHT22;5269;51.146;16.986;2023-12-04T17:47:49;-3.30;99.90
10443;DHT22;5269;51.146;16.986;2023-12-04T17:50:19;-3.40;99.90
10443;DHT22;5269;51.146;16.986;2023-12-04T17:52:48;-3.40;99.90
10443;DHT22;5269;51.146;16.986;2023-12-04T17:55:20;-3.30;99.90
10443;DHT22;5269;51.146;16.986;2023-12-04T18:13:51;-3.40;99.90
10443;DHT22;5269;51.146;16.986;2023-12-04T18:28:38;-3.50;99.90
10443;DHT22;5269;51.146;16.986;2023-12-04T18:37:32;-3.40;99.90
10443;DHT22;5269;51.146;16.986;2023-12-04T18:40:10;-3.40;99.90
10443;DHT22;5269;51.146;16.986;2023-12-04T18:42:49;-3.40;99.90
10443;DHT22;5269;51.146;16.986;2023-12-04T18:45:29;-3.40;99.90
10443;DHT22;5269;51.146;16.986;2023-12-04T18:48:02;-3.50;99.90
10443;DHT22;5269;51.146;16.986;2023-12-04T18:53:10;-3.40;99.90
10443;DHT22;5269;51.146;16.986;2023-12-04T18:58:26;-3.30;99.90
10443;DHT22;5269;51.146;16.986;2023-12-04T19:00:59;-3.30;99.90
10443;DHT22;5269;51.146;16.986;2023-12-04T19:08:41;-3.20;99.90
10443;DHT22;5269;51.146;16.986;2023-12-04T19:11:29;-3.20;99.90
10443;DHT22;5269;51.146;16.986;2023-12-04T19:22:00;-3.20;99.90
10443;DHT22;5269;51.146;16.986;2023-12-04T19:30:22;-3.10;99.90
10443;DHT22;5269;51.146;16.986;2023-12-04T21:05:38;-2.80;99.90
10443;DHT22;5269;51.146;16.986;2023-12-04T21:08:20;-2.80;99.90
10443;DHT22;5269;51.146;16.986;2023-12-04T21:11:09;-2.80;99.90
10443;DHT22;5269;51.146;16.986;2023-12-04T21:13:40;-2.80;99.90
10443;DHT22;5269;51.146;16.986;2023-12-04T21:16:38;-2.80;99.90
10443;DHT22;5269;51.146;16.986;2023-12-04T21:22:22;-2.80;99.90
10443;DHT22;5269;51.146;16.986;2023-12-04T21:31:19;-2.90;99.90
10443;DHT22;5269;51.146;16.986;2023-12-04T21:41:19;-2.90;99.90
10443;DHT22;5269;51.146;16.986;2023-12-04T21:43:51;-2.90;99.90
10443;DHT22;5269;51.146;16.986;2023-12-04T21:52:50;-3.00;99.90
10443;DHT22;5269;51.146;16.986;2023-12-04T21:55:47;-3.10;99.90
10443;DHT22;5269;51.146;16.986;2023-12-04T21:58:30;-3.20;99.90
10443;DHT22;5269;51.146;16.986;2023-12-04T22:01:00;-3.30;99.90
10443;DHT22;5269;51.146;16.986;2023-12-04T22:03:35;-3.30;99.90
10443;DHT22;5269;51.146;16.986;2023-12-04T22:06:06;-3.30;99.90
10443;DHT22;5269;51.146;16.986;2023-12-04T22:08:40;-3.30;99.90
10443;DHT22;5269;51.146;16.986;2023-12-04T22:11:19;-3.30;99.90
10443;DHT22;5269;51.146;16.986;2023-12-04T22:14:40;-3.40;99.90
10443;DHT22;5269;51.146;16.986;2023-12-04T22:17:31;-3.40;99.90
10443;DHT22;5269;51.146;16.986;2023-12-04T22:20:38;-3.40;99.90
10443;DHT22;5269;51.146;16.986;2023-12-04T22:23:22;-3.50;99.90
10443;DHT22;5269;51.146;16.986;2023-12-04T22:25:59;-3.40;99.90
10443;DHT22;5269;51.146;16.986;2023-12-04T22:28:32;-3.40;99.90
10443;DHT22;5269;51.146;16.986;2023-12-04T22:31:11;-3.40;99.90
10443;DHT22;5269;51.146;16.986;2023-12-04T22:36:48;-3.40;99.90
10443;DHT22;5269;51.146;16.986;2023-12-04T22:39:20;-3.50;99.90
10443;DHT22;5269;51.146;16.986;2023-12-04T22:42:22;-3.50;99.90
10443;DHT22;5269;51.146;16.986;2023-12-04T22:45:02;-3.50;99.90
10443;DHT22;5269;51.146;16.986;2023-12-04T22:47:42;-3.50;99.90
10443;DHT22;5269;51.146;16.986;2023-12-04T22:50:18;-3.50;99.90
10443;DHT22;5269;51.146;16.986;2023-12-04T22:52:52;-3.40;99.90
10443;DHT22;5269;51.146;16.986;2023-12-04T22:55:30;-3.30;99.90
10443;DHT22;5269;51.146;16.986;2023-12-04T22:58:12;-3.30;99.90
10443;DHT22;5269;51.146;16.986;2023-12-04T23:01:01;-3.20;99.90
10443;DHT22;5269;51.146;16.986;2023-12-04T23:03:51;-3.20;99.90
10443;DHT22;5269;51.146;16.986;2023-12-04T23:06:38;-3.10;99.90
10443;DHT22;5269;51.146;16.986;2023-12-04T23:09:09;-3.00;99.90
10443;DHT22;5269;51.146;16.986;2023-12-04T23:11:38;-3.00;99.90
10443;DHT22;5269;51.146;16.986;2023-12-04T23:14:07;-2.90;99.90
10443;DHT22;5269;51.146;16.986;2023-12-04T23:16:45;-3.00;99.90
10443;DHT22;5269;51.146;16.986;2023-12-04T23:19:18;-2.90;99.90
10443;DHT22;5269;51.146;16.986;2023-12-04T23:21:51;-2.90;99.90
10443;DHT22;5269;51.146;16.986;2023-12-04T23:24:30;-2.90;99.90
10443;DHT22;5269;51.146;16.986;2023-12-04T23:26:58;-2.90;99.90
10443;DHT22;5269;51.146;16.986;2023-12-04T23:29:39;-3.00;99.90
10443;DHT22;5269;51.146;16.986;2023-12-04T23:32:09;-3.00;99.90
10443;DHT22;5269;51.146;16.986;2023-12-04T23:34:40;-3.10;99.90
10443;DHT22;5269;51.146;16.986;2023-12-04T23:37:12;-3.10;99.90
10443;DHT22;5269;51.146;16.986;2023-12-04T23:39:40;-3.20;99.90
10443;DHT22;5269;51.146;16.986;2023-12-04T23:42:09;-3.20;99.90
10443;DHT22;5269;51.146;16.986;2023-12-04T23:44:38;-3.20;99.90
10443;DHT22;5269;51.146;16.986;2023-12-04T23:47:08;-3.00;99.90
10443;DHT22;5269;51.146;16.986;2023-12-04T23:49:42;-3.10;99.90
10443;DHT22;5269;51.146;16.986;2023-12-04T23:52:18;-3.10;99.90
10443;DHT22;5269;51.146;16.986;2023-12-04T23:54:51;-3.10;99.90
10443;DHT22;5269;51.146;16.986;2023-12-04T23:57:19;-3.10;99.90
10443;DHT22;5269;51.146;16.986;2023-12-04T23:59:56;-3.20;99.90
